createdAt,value
2022-11-08T00:00:10.834Z,16.30
2022-11-08T00:03:00.757Z,16.45
2022-11-08T00:05:47.702Z,16.52
2022-11-08T00:08:35.090Z,16.98
2022-11-08T00:11:24.129Z,17.42
2022-11-08T00:13:58.656Z,16.55
2022-11-08T00:16:26.845Z,16.33
2022-11-08T00:18:54.562Z,15.88
2022-11-08T00:21:21.963Z,16.30
2022-11-08T00:23:49.555Z,16.27
2022-11-08T00:26:17.001Z,17.05
2022-11-08T00:28:44.607Z,17.17
2022-11-08T00:31:11.866Z,16.95
2022-11-08T00:33:39.572Z,15.77
2022-11-08T00:36:07.084Z,16.17
2022-11-08T00:38:35.212Z,16.75
2022-11-08T00:41:02.764Z,16.38
2022-11-08T00:43:30.463Z,16.65
2022-11-08T00:45:57.843Z,16.30
2022-11-08T00:48:25.604Z,17.27
2022-11-08T00:50:53.332Z,15.23
2022-11-08T00:53:21.207Z,16.15
2022-11-08T00:55:48.445Z,17.42
2022-11-08T00:58:16.411Z,16.80
2022-11-08T01:00:43.814Z,16.00
2022-11-08T01:03:24.137Z,15.73
2022-11-08T01:05:53.812Z,15.63
2022-11-08T01:08:23.118Z,15.52
2022-11-08T01:10:53.211Z,15.23
2022-11-08T01:13:21.647Z,16.15
2022-11-08T01:15:49.403Z,15.65
2022-11-08T01:18:17.669Z,14.70
2022-11-08T01:20:47.457Z,15.63
2022-11-08T01:23:15.941Z,14.88
2022-11-08T01:25:45.151Z,15.48
2022-11-08T01:28:13.278Z,15.55
2022-11-08T01:30:42.741Z,14.70
2022-11-08T01:33:10.811Z,16.05
2022-11-08T01:35:38.437Z,14.38
2022-11-08T01:38:06.847Z,14.90
2022-11-08T01:40:35.179Z,15.05
2022-11-08T01:43:30.958Z,13.95
2022-11-08T01:46:20.257Z,14.85
2022-11-08T01:49:13.591Z,14.60
2022-11-08T01:52:01.492Z,14.95
2022-11-08T01:54:52.386Z,14.30
2022-11-08T01:57:26.611Z,14.88
2022-11-08T01:59:57.168Z,14.43
2022-11-08T02:02:24.557Z,14.80
2022-11-08T02:04:52.256Z,15.27
2022-11-08T02:07:19.520Z,14.63
2022-11-08T02:09:48.747Z,13.63
2022-11-08T02:12:16.378Z,14.63
2022-11-08T02:14:44.138Z,13.80
2022-11-08T02:17:11.536Z,14.10
2022-11-08T02:19:52.212Z,14.30
2022-11-08T02:22:29.485Z,14.27
2022-11-08T02:24:58.646Z,14.85
2022-11-08T02:27:26.473Z,13.95
2022-11-08T02:29:55.443Z,14.35
2022-11-08T02:32:24.326Z,15.15
2022-11-08T02:34:57.212Z,14.75
2022-11-08T02:37:26.317Z,13.98
2022-11-08T02:39:54.001Z,13.68
2022-11-08T02:42:22.291Z,14.52
2022-11-08T02:44:51.734Z,14.00
2022-11-08T02:47:19.145Z,13.65
2022-11-08T02:49:48.189Z,13.77
2022-11-08T02:52:15.531Z,14.40
2022-11-08T02:54:43.178Z,13.95
2022-11-08T02:57:10.555Z,13.68
2022-11-08T02:59:38.095Z,14.27
2022-11-08T03:02:05.769Z,13.93
2022-11-08T03:04:34.011Z,13.25
2022-11-08T03:07:01.277Z,13.88
2022-11-08T03:09:29.031Z,13.80
2022-11-08T03:11:56.547Z,13.57
2022-11-08T03:14:24.190Z,13.63
2022-11-08T03:16:51.568Z,15.93
2022-11-08T03:19:19.406Z,14.68
2022-11-08T03:21:46.599Z,14.27
2022-11-08T03:24:14.511Z,14.45
2022-11-08T03:26:42.031Z,14.25
2022-11-08T03:29:09.850Z,13.77
2022-11-08T03:31:37.184Z,13.50
2022-11-08T03:34:04.839Z,15.70
2022-11-08T03:36:32.382Z,13.80
2022-11-08T03:39:00.027Z,13.77
2022-11-08T03:41:27.626Z,13.52
2022-11-08T03:43:55.260Z,14.57
2022-11-08T03:46:22.634Z,13.85
2022-11-08T03:48:50.532Z,13.05
2022-11-08T03:51:18.131Z,13.77
2022-11-08T03:53:45.747Z,14.07
2022-11-08T03:56:13.030Z,13.93
2022-11-08T03:58:40.769Z,13.13
2022-11-08T04:01:08.675Z,14.25
2022-11-08T04:03:36.236Z,13.25
2022-11-08T04:06:04.117Z,14.02
2022-11-08T04:08:31.971Z,13.48
2022-11-08T04:11:20.002Z,14.38
2022-11-08T04:14:06.696Z,14.23
2022-11-08T04:16:34.351Z,14.13
2022-11-08T04:19:20.623Z,14.00
2022-11-08T04:21:48.825Z,14.20
2022-11-08T04:24:16.765Z,13.82
2022-11-08T04:26:44.400Z,13.88
2022-11-08T04:29:12.295Z,14.40
2022-11-08T04:31:39.871Z,14.95
2022-11-08T04:34:07.677Z,14.52
2022-11-08T04:36:35.232Z,13.93
2022-11-08T04:39:02.836Z,14.57
2022-11-08T04:41:30.370Z,15.55
2022-11-08T04:43:58.044Z,13.35
2022-11-08T04:46:27.316Z,14.00
2022-11-08T04:48:57.554Z,14.57
2022-11-08T04:51:30.241Z,14.57
2022-11-08T04:54:00.105Z,15.02
2022-11-08T04:56:29.603Z,14.57
2022-11-08T04:58:59.696Z,14.63
2022-11-08T05:01:31.758Z,14.40
2022-11-08T05:03:59.738Z,15.20
2022-11-08T05:06:31.738Z,14.23
2022-11-08T05:09:00.616Z,15.02
2022-11-08T05:11:30.363Z,15.38
2022-11-08T05:13:58.390Z,14.27
2022-11-08T05:16:31.054Z,14.45
2022-11-08T05:18:58.879Z,14.20
2022-11-08T05:21:45.263Z,14.80
2022-11-08T05:24:14.984Z,14.70
2022-11-08T05:26:44.470Z,14.43
2022-11-08T05:29:13.971Z,14.55
2022-11-08T05:31:41.616Z,14.27
2022-11-08T05:34:29.903Z,14.48
2022-11-08T05:36:57.314Z,14.48
2022-11-08T05:39:28.243Z,14.02
2022-11-08T05:41:59.802Z,14.80
2022-11-08T05:44:28.305Z,14.18
2022-11-08T05:46:56.451Z,13.77
2022-11-08T05:49:24.122Z,14.45
2022-11-08T05:51:51.738Z,13.77
2022-11-08T05:54:20.723Z,15.07
2022-11-08T05:56:48.764Z,14.23
2022-11-08T05:59:16.486Z,15.60
2022-11-08T06:01:43.862Z,14.85
2022-11-08T06:04:11.635Z,14.98
2022-11-08T06:06:39.015Z,15.18
2022-11-08T06:09:06.659Z,15.00
2022-11-08T06:11:34.014Z,15.35
2022-11-08T06:14:01.707Z,15.77
2022-11-08T06:16:29.189Z,14.85
2022-11-08T06:18:56.829Z,14.68
2022-11-08T06:21:24.438Z,15.68
2022-11-08T06:23:54.808Z,15.07
2022-11-08T06:26:23.885Z,16.42
2022-11-08T06:28:51.548Z,14.45
2022-11-08T06:31:19.294Z,15.98
2022-11-08T06:33:47.049Z,16.52
2022-11-08T06:36:14.453Z,15.07
2022-11-08T06:38:42.161Z,15.02
2022-11-08T06:41:17.131Z,14.43
2022-11-08T06:43:44.781Z,14.98
2022-11-08T06:46:12.101Z,15.73
2022-11-08T06:48:39.703Z,14.80
2022-11-08T06:51:07.141Z,15.77
2022-11-08T06:53:34.842Z,14.27
2022-11-08T06:56:03.071Z,14.57
2022-11-08T06:58:31.581Z,14.80
2022-11-08T07:01:01.135Z,14.55
2022-11-08T07:03:28.742Z,13.63
2022-11-08T07:05:56.093Z,14.93
2022-11-08T07:08:24.486Z,14.57
2022-11-08T07:10:52.034Z,15.18
2022-11-08T07:13:20.258Z,15.27
2022-11-08T07:15:48.268Z,13.90
2022-11-08T07:18:17.226Z,14.70
2022-11-08T07:20:44.752Z,14.15
2022-11-08T07:23:12.910Z,14.77
2022-11-08T07:25:40.305Z,13.98
2022-11-08T07:28:09.188Z,14.15
2022-11-08T07:30:36.613Z,14.45
2022-11-08T07:33:05.093Z,14.45
2022-11-08T07:35:32.361Z,14.55
2022-11-08T07:38:00.317Z,13.70
2022-11-08T07:40:28.095Z,14.18
2022-11-08T07:43:14.990Z,13.25
2022-11-08T07:45:44.049Z,13.48
2022-11-08T07:48:13.573Z,13.98
2022-11-08T07:50:42.258Z,13.77
2022-11-08T07:53:11.220Z,13.27
2022-11-08T07:55:41.169Z,13.32
2022-11-08T07:58:12.652Z,13.48
2022-11-08T08:00:42.180Z,14.18
2022-11-08T08:03:12.369Z,12.77
2022-11-08T08:05:43.161Z,11.95
2022-11-08T08:08:12.561Z,11.48
2022-11-08T08:10:41.128Z,11.50
2022-11-08T08:13:09.165Z,11.13
2022-11-08T08:15:37.542Z,11.05
2022-11-08T08:18:07.707Z,10.45
2022-11-08T08:20:36.050Z,9.40
2022-11-08T08:23:03.779Z,11.25
2022-11-08T08:25:31.734Z,11.40
2022-11-08T08:28:03.272Z,10.60
2022-11-08T08:30:31.890Z,10.18
2022-11-08T08:35:57.583Z,9.23
2022-11-08T08:38:25.069Z,9.25
2022-11-08T08:40:52.502Z,9.10
2022-11-08T08:43:20.866Z,9.77
2022-11-08T08:45:49.092Z,9.85
2022-11-08T08:48:16.954Z,8.38
2022-11-08T08:50:44.333Z,8.88
2022-11-08T08:53:12.107Z,7.80
2022-11-08T08:55:40.698Z,8.57
2022-11-08T08:58:09.855Z,8.10
2022-11-08T09:03:25.443Z,8.52
2022-11-08T09:05:52.619Z,8.65
2022-11-08T09:08:20.480Z,8.02
2022-11-08T09:10:53.972Z,8.25
2022-11-08T09:13:22.152Z,7.55
2022-11-08T09:15:49.656Z,7.05
2022-11-08T09:18:17.827Z,7.43
2022-11-08T09:20:45.539Z,7.68
2022-11-08T09:23:15.286Z,7.47
2022-11-08T09:25:42.884Z,7.70
2022-11-08T09:28:10.688Z,8.27
2022-11-08T09:30:38.038Z,8.60
2022-11-08T09:33:05.987Z,8.23
2022-11-08T09:35:34.262Z,7.70
2022-11-08T09:38:02.103Z,7.68
2022-11-08T09:40:52.293Z,6.75
2022-11-08T09:43:41.808Z,7.53
2022-11-08T09:46:18.306Z,7.40
2022-11-08T09:48:46.313Z,8.02
2022-11-08T09:51:16.729Z,5.82
2022-11-08T09:53:50.150Z,6.38
2022-11-08T09:56:24.893Z,6.75
2022-11-08T09:58:54.852Z,6.20
2022-11-08T10:01:26.914Z,6.60
2022-11-08T10:03:56.556Z,5.85
2022-11-08T10:06:45.984Z,6.78
2022-11-08T10:09:26.343Z,6.80
2022-11-08T10:12:22.637Z,5.88
2022-11-08T10:15:02.320Z,6.38
2022-11-08T10:17:32.655Z,6.10
2022-11-08T10:20:38.183Z,6.47
2022-11-08T10:23:27.485Z,6.10
2022-11-08T10:25:57.943Z,6.63
2022-11-08T10:28:37.453Z,6.32
2022-11-08T10:31:05.785Z,5.75
2022-11-08T10:33:56.874Z,6.63
2022-11-08T10:36:38.040Z,5.93
2022-11-08T10:39:22.114Z,6.13
2022-11-08T10:41:59.546Z,5.60
2022-11-08T10:44:27.931Z,6.13
2022-11-08T10:47:00.800Z,7.22
2022-11-08T10:49:32.449Z,6.25
2022-11-08T10:52:25.530Z,6.00
2022-11-08T10:54:55.013Z,6.63
2022-11-08T10:57:26.514Z,5.43
2022-11-08T10:59:54.765Z,5.47
2022-11-08T11:02:29.488Z,5.20
2022-11-08T11:05:16.962Z,5.00
2022-11-08T11:08:05.346Z,5.10
2022-11-08T11:10:34.483Z,5.90
2022-11-08T11:13:22.557Z,5.63
2022-11-08T11:15:54.116Z,5.40
2022-11-08T11:18:47.507Z,6.03
2022-11-08T11:21:19.824Z,6.03
2022-11-08T11:25:14.471Z,5.55
2022-11-08T11:27:43.362Z,5.55
2022-11-08T11:30:28.461Z,5.22
2022-11-08T11:33:07.060Z,5.07
2022-11-08T11:35:47.828Z,4.90
2022-11-08T11:38:25.172Z,4.80
2022-11-08T11:40:53.715Z,5.63
2022-11-08T11:43:42.794Z,4.75
2022-11-08T11:46:51.905Z,4.85
2022-11-08T11:49:23.435Z,4.68
2022-11-08T11:51:55.288Z,4.05
2022-11-08T11:54:32.624Z,4.45
2022-11-08T11:57:32.449Z,4.43
2022-11-08T12:00:07.686Z,4.78
2022-11-08T12:04:00.394Z,4.20
2022-11-08T12:06:39.801Z,4.30
2022-11-08T12:12:09.324Z,3.97
2022-11-08T12:15:14.562Z,3.80
2022-11-08T12:17:57.070Z,3.08
2022-11-08T12:20:36.492Z,3.50
2022-11-08T12:23:34.853Z,2.72
2022-11-08T12:26:40.676Z,3.30
2022-11-08T12:29:10.811Z,2.70
2022-11-08T12:32:07.930Z,3.15
2022-11-08T12:34:46.330Z,2.95
2022-11-08T12:38:25.443Z,2.85
2022-11-08T12:40:56.701Z,2.70
2022-11-08T12:43:49.287Z,3.10
2022-11-08T12:46:18.723Z,2.83
2022-11-08T12:48:55.125Z,2.80
2022-11-08T12:51:45.020Z,3.30
2022-11-08T12:54:31.457Z,3.30
2022-11-08T12:57:03.550Z,3.95
2022-11-08T12:59:52.378Z,3.60
2022-11-08T13:02:24.971Z,2.78
2022-11-08T13:04:58.901Z,2.97
2022-11-08T13:07:51.936Z,2.80
2022-11-08T13:12:53.393Z,3.55
2022-11-08T13:15:25.266Z,3.35
2022-11-08T13:18:11.449Z,3.58
2022-11-08T13:20:45.145Z,2.95
2022-11-08T13:23:26.108Z,3.28
2022-11-08T13:25:54.089Z,3.50
2022-11-08T13:28:43.931Z,3.28
2022-11-08T13:31:29.866Z,3.58
2022-11-08T13:34:06.242Z,3.85
2022-11-08T13:36:44.666Z,4.00
2022-11-08T13:39:27.764Z,3.55
2022-11-08T13:42:26.382Z,3.47
2022-11-08T13:45:00.263Z,4.07
2022-11-08T13:47:33.962Z,5.13
2022-11-08T13:50:26.235Z,3.90
2022-11-08T13:53:12.970Z,4.25
2022-11-08T13:56:58.169Z,4.15
2022-11-08T13:59:31.790Z,4.20
2022-11-08T14:02:03.776Z,4.15
2022-11-08T14:05:24.730Z,4.05
2022-11-08T14:08:02.594Z,4.57
2022-11-08T14:10:40.911Z,4.22
2022-11-08T14:13:17.687Z,3.90
2022-11-08T14:15:52.278Z,5.70
2022-11-08T14:18:31.464Z,4.93
2022-11-08T14:20:59.015Z,4.15
2022-11-08T14:23:29.469Z,4.57
2022-11-08T14:26:06.806Z,5.18
2022-11-08T14:28:37.481Z,5.05
2022-11-08T14:31:08.084Z,4.70
2022-11-08T14:33:42.784Z,4.43
2022-11-08T14:36:15.788Z,4.90
2022-11-08T14:38:52.847Z,4.47
2022-11-08T14:41:25.686Z,4.90
2022-11-08T14:43:54.625Z,5.05
2022-11-08T14:46:31.475Z,5.22
2022-11-08T14:49:28.197Z,5.13
2022-11-08T14:52:18.556Z,5.20
2022-11-08T14:54:47.804Z,5.47
2022-11-08T14:57:41.152Z,5.20
2022-11-08T15:02:53.222Z,6.07
2022-11-08T15:05:28.936Z,5.85
2022-11-08T15:07:57.617Z,6.60
2022-11-08T15:10:25.772Z,6.60
2022-11-08T15:12:53.463Z,6.25
2022-11-08T15:15:22.733Z,6.43
2022-11-08T15:18:13.503Z,5.70
2022-11-08T15:20:56.075Z,7.13
2022-11-08T15:23:54.625Z,6.28
2022-11-08T15:26:31.549Z,6.82
2022-11-08T15:29:09.908Z,6.15
2022-11-08T15:31:41.937Z,6.95
2022-11-08T15:34:39.153Z,6.97
2022-11-08T15:37:40.246Z,7.32
2022-11-08T15:40:27.424Z,7.30
2022-11-08T15:42:55.143Z,7.53
2022-11-08T15:45:28.990Z,7.30
2022-11-08T15:48:09.254Z,7.10
2022-11-08T15:50:36.806Z,7.65
2022-11-08T15:53:05.432Z,8.07
2022-11-08T15:55:38.738Z,9.90
2022-11-08T15:58:21.222Z,9.38
2022-11-08T16:00:49.503Z,10.63
2022-11-08T16:03:17.414Z,11.02
2022-11-08T16:05:44.798Z,10.95
2022-11-08T16:08:17.036Z,11.20
2022-11-08T16:10:49.353Z,9.40
2022-11-08T16:13:20.352Z,9.50
2022-11-08T16:15:48.427Z,10.20
2022-11-08T16:18:16.909Z,9.63
2022-11-08T16:20:44.550Z,9.88
2022-11-08T16:23:13.286Z,11.93
2022-11-08T16:25:43.812Z,11.43
2022-11-08T16:28:33.856Z,10.15
2022-11-08T16:31:06.101Z,9.43
2022-11-08T16:33:35.179Z,9.98
2022-11-08T16:36:20.897Z,10.27
2022-11-08T16:38:56.203Z,10.05
2022-11-08T16:41:25.083Z,9.73
2022-11-08T16:43:52.925Z,9.75
2022-11-08T16:46:21.749Z,11.35
2022-11-08T16:48:56.249Z,11.35
2022-11-08T16:51:25.640Z,10.23
2022-11-08T16:53:53.670Z,10.95
2022-11-08T16:56:21.741Z,10.68
2022-11-08T16:58:49.928Z,12.27
2022-11-08T17:01:32.817Z,11.82
2022-11-08T17:04:00.793Z,10.27
2022-11-08T17:06:28.797Z,10.80
2022-11-08T17:08:56.612Z,11.52
2022-11-08T17:11:24.373Z,10.73
2022-11-08T17:13:55.593Z,10.52
2022-11-08T17:16:22.882Z,10.90
2022-11-08T17:18:53.070Z,10.73
2022-11-08T17:24:09.052Z,10.95
2022-11-08T17:26:36.372Z,9.98
2022-11-08T17:29:04.032Z,9.70
2022-11-08T17:31:31.329Z,10.20
2022-11-08T17:33:58.898Z,9.55
2022-11-08T17:36:26.213Z,10.20
2022-11-08T17:38:53.684Z,11.07
2022-11-08T17:41:21.213Z,9.85
2022-11-08T17:43:48.830Z,9.75
2022-11-08T17:46:16.210Z,10.45
2022-11-08T17:48:43.883Z,10.55
2022-11-08T17:51:13.283Z,10.35
2022-11-08T17:53:41.081Z,10.27
2022-11-08T17:56:08.942Z,10.70
2022-11-08T17:58:38.097Z,10.80
2022-11-08T18:01:06.729Z,10.80
2022-11-08T18:03:34.978Z,10.30
2022-11-08T18:06:08.042Z,10.45
2022-11-08T18:08:35.981Z,11.45
2022-11-08T18:11:04.301Z,10.48
2022-11-08T18:13:32.397Z,11.25
2022-11-08T18:16:13.262Z,12.32
2022-11-08T18:18:41.775Z,11.68
2022-11-08T18:21:09.902Z,11.77
2022-11-08T18:23:40.935Z,11.40
2022-11-08T18:26:09.139Z,12.52
2022-11-08T18:28:37.861Z,11.70
2022-11-08T18:31:10.635Z,12.30
2022-11-08T18:33:38.823Z,12.02
2022-11-08T18:36:08.351Z,11.85
2022-11-08T18:38:39.290Z,11.57
2022-11-08T18:41:07.572Z,11.95
2022-11-08T18:43:35.715Z,11.73
2022-11-08T18:46:12.956Z,12.15
2022-11-08T18:48:40.965Z,14.32
2022-11-08T18:51:10.915Z,14.25
2022-11-08T18:53:39.728Z,14.10
2022-11-08T18:56:07.524Z,14.90
2022-11-08T18:58:35.287Z,14.18
2022-11-08T19:01:03.026Z,15.80
2022-11-08T19:03:31.029Z,14.52
2022-11-08T19:05:58.267Z,14.40
2022-11-08T19:08:27.537Z,15.25
2022-11-08T19:11:00.663Z,14.95
2022-11-08T19:13:29.960Z,15.15
2022-11-08T19:16:13.740Z,15.20
2022-11-08T19:18:42.526Z,15.75
2022-11-08T19:21:13.986Z,16.60
2022-11-08T19:23:42.604Z,16.15
2022-11-08T19:26:29.433Z,15.95
2022-11-08T19:28:57.699Z,16.20
2022-11-08T19:31:25.915Z,15.70
2022-11-08T19:33:54.806Z,15.20
2022-11-08T19:36:27.356Z,15.35
2022-11-08T19:38:56.522Z,16.50
2022-11-08T19:41:26.151Z,15.65
2022-11-08T19:43:55.319Z,15.73
2022-11-08T19:46:26.074Z,16.13
2022-11-08T19:48:53.913Z,14.60
2022-11-08T19:51:23.191Z,14.98
2022-11-08T19:53:54.651Z,15.23
2022-11-08T19:56:29.288Z,15.52
2022-11-08T19:59:10.044Z,15.52
2022-11-08T20:01:40.002Z,15.05
2022-11-08T20:04:09.992Z,15.18
2022-11-08T20:06:38.150Z,15.63
2022-11-08T20:09:06.312Z,15.85
2022-11-08T20:11:36.177Z,16.23
2022-11-08T20:14:05.008Z,15.55
2022-11-08T20:16:41.885Z,16.05
2022-11-08T20:19:15.126Z,16.58
2022-11-08T20:21:45.827Z,16.17
2022-11-08T20:24:14.799Z,16.48
2022-11-08T20:26:42.303Z,17.27
2022-11-08T20:29:10.634Z,16.45
2022-11-08T20:31:39.247Z,17.80
2022-11-08T20:34:10.294Z,17.00
2022-11-08T20:36:38.135Z,17.80
2022-11-08T20:39:07.692Z,18.02
2022-11-08T20:41:37.980Z,18.08
2022-11-08T20:44:06.883Z,17.33
2022-11-08T20:46:35.325Z,18.20
2022-11-08T20:49:04.586Z,17.45
2022-11-08T20:51:33.132Z,16.55
2022-11-08T20:54:01.509Z,16.98
2022-11-08T20:56:29.447Z,15.70
2022-11-08T20:58:57.542Z,16.83
2022-11-08T21:01:28.231Z,18.05
2022-11-08T21:03:57.177Z,16.92
2022-11-08T21:06:26.521Z,17.15
2022-11-08T21:09:08.255Z,16.30
2022-11-08T21:11:42.520Z,17.65
2022-11-08T21:14:11.071Z,17.80
2022-11-08T21:16:59.767Z,18.63
2022-11-08T21:19:27.224Z,17.05
2022-11-08T21:22:14.437Z,18.08
2022-11-08T21:24:46.453Z,17.85
2022-11-08T21:27:14.434Z,18.67
2022-11-08T21:29:42.231Z,19.58
2022-11-08T21:32:09.545Z,18.88
2022-11-08T21:34:37.346Z,19.38
2022-11-08T21:37:04.682Z,17.42
2022-11-08T21:39:32.875Z,17.45
2022-11-08T21:42:00.535Z,17.35
2022-11-08T21:44:28.050Z,18.83
2022-11-08T21:46:55.446Z,18.42
2022-11-08T21:49:23.116Z,18.17
2022-11-08T21:51:50.697Z,17.88
2022-11-08T21:54:18.989Z,18.00
2022-11-08T21:56:46.219Z,17.67
2022-11-08T21:59:13.895Z,18.20
2022-11-08T22:01:41.239Z,18.17
2022-11-08T22:04:09.115Z,17.90
2022-11-08T22:06:36.558Z,18.58
2022-11-08T22:09:04.443Z,18.15
2022-11-08T22:11:31.844Z,17.90
2022-11-08T22:13:59.468Z,16.67
2022-11-08T22:16:26.725Z,16.70
2022-11-08T22:19:10.125Z,17.80
2022-11-08T22:21:38.360Z,16.52
2022-11-08T22:24:13.623Z,17.98
2022-11-08T22:26:44.036Z,17.73
2022-11-08T22:29:11.714Z,18.30
2022-11-08T22:31:39.558Z,17.88
2022-11-08T22:34:08.665Z,18.20
2022-11-08T22:36:42.968Z,16.85
2022-11-08T22:39:18.219Z,18.25
2022-11-08T22:41:46.640Z,18.10
2022-11-08T22:44:14.730Z,19.25
2022-11-08T22:46:42.967Z,19.15
2022-11-08T22:49:11.367Z,18.58
2022-11-08T22:51:39.519Z,18.50
2022-11-08T22:54:07.062Z,18.58
2022-11-08T22:56:34.479Z,20.42
2022-11-08T22:59:02.700Z,21.23
2022-11-08T23:01:30.132Z,19.02
2022-11-08T23:03:57.983Z,19.38
2022-11-08T23:06:25.228Z,18.90
2022-11-08T23:08:53.209Z,19.05
2022-11-08T23:11:39.063Z,19.70
2022-11-08T23:14:25.511Z,19.40
2022-11-08T23:16:53.070Z,19.67
2022-11-08T23:19:41.266Z,18.05
2022-11-08T23:22:34.616Z,19.00
2022-11-08T23:25:02.751Z,20.00
2022-11-08T23:27:49.702Z,18.13
2022-11-08T23:30:37.002Z,19.77
2022-11-08T23:33:06.149Z,20.00
2022-11-08T23:35:33.830Z,18.15
2022-11-08T23:38:01.197Z,20.45
2022-11-08T23:40:47.542Z,20.45
2022-11-08T23:43:38.022Z,19.15
2022-11-08T23:46:11.650Z,21.15
2022-11-08T23:48:40.290Z,20.83
2022-11-08T23:51:08.263Z,20.95
2022-11-08T23:53:37.276Z,20.58
2022-11-08T23:56:05.748Z,20.70
2022-11-08T23:58:33.691Z,19.20
